Time;durP1;ratioP1;P1;durP2;ratioP2;P2;SDS_P1;SDS_P2;PMS_P1;PMS_P2;Temp;Humidity;BMP_temperature;BMP_pressure;BME280_temperature;BME280_humidity;BME280_pressure;Samples;Min_cycle;Max_cycle;Signal;HPM_P1;HPM_P2
2022/07/21 00:02:03;;;;;;;8.18;4.78;;;;;;;;;;6313997;28;20332;-71
2022/07/21 00:05:05;;;;;;;9.07;4.70;;;;;;;;;;6315437;28;20055;-72
2022/07/21 00:08:07;;;;;;;13.50;5.60;;;;;;;;;;6318269;28;21439;-73
2022/07/21 00:11:10;;;;;;;7.93;5.70;;;;;;;;;;6313071;28;20071;-73
2022/07/21 00:14:12;;;;;;;8.90;5.68;;;;;;;;;;6298072;28;20048;-72
2022/07/21 00:17:15;;;;;;;13.68;6.28;;;;;;;;;;6291770;28;20267;-72
2022/07/21 00:20:17;;;;;;;11.85;6.60;;;;;;;;;;6289785;28;20048;-72
2022/07/21 00:23:19;;;;;;;11.13;6.07;;;;;;;;;;6292002;28;20059;-71
2022/07/21 00:26:22;;;;;;;8.88;6.38;;;;;;;;;;6291033;28;20071;-73
2022/07/21 00:29:24;;;;;;;12.75;5.65;;;;;;;;;;6286032;28;20059;-70
2022/07/21 00:32:25;;;;;;;7.22;5.70;;;;;;;;;;6287373;28;20332;-72
2022/07/21 00:35:27;;;;;;;9.60;6.00;;;;;;;;;;6289335;28;20132;-72
2022/07/21 00:38:29;;;;;;;8.50;5.70;;;;;;;;;;6289411;28;20045;-73
2022/07/21 00:41:34;;;;;;;8.27;5.75;;;;;;;;;;6289542;28;20079;-71
2022/07/21 00:44:35;;;;;;;9.65;6.07;;;;;;;;;;6290305;28;20312;-72
2022/07/21 00:47:38;;;;;;;7.25;5.05;;;;;;;;;;6297951;28;20102;-72
2022/07/21 00:50:40;;;;;;;8.23;5.57;;;;;;;;;;6289603;28;20045;-72
2022/07/21 00:53:41;;;;;;;8.10;5.43;;;;;;;;;;6294242;28;20067;-71
2022/07/21 00:56:45;;;;;;;10.80;5.22;;;;;;;;;;6293971;28;20058;-74
2022/07/21 00:59:47;;;;;;;6.65;5.00;;;;;;;;;;6293579;28;20056;-72
2022/07/21 01:02:48;;;;;;;7.45;5.05;;;;;;;;;;6299110;28;20060;-70
2022/07/21 01:05:51;;;;;;;9.00;5.68;;;;;;;;;;6296413;28;20044;-72
2022/07/21 01:08:52;;;;;;;12.68;5.65;;;;;;;;;;6299651;28;20084;-71
2022/07/21 01:11:56;;;;;;;8.25;4.85;;;;;;;;;;6296455;28;20041;-71
2022/07/21 01:14:57;;;;;;;8.25;4.68;;;;;;;;;;6297566;28;20052;-74
2022/07/21 01:17:59;;;;;;;9.32;5.07;;;;;;;;;;6299042;28;20040;-73
2022/07/21 01:21:04;;;;;;;7.95;4.70;;;;;;;;;;6294447;28;20052;-72
2022/07/21 01:24:08;;;;;;;7.55;4.47;;;;;;;;;;6295008;28;20350;-71
2022/07/21 01:27:10;;;;;;;12.15;4.55;;;;;;;;;;6301953;28;20123;-73
2022/07/21 01:30:12;;;;;;;7.28;4.93;;;;;;;;;;6294216;28;20262;-72
2022/07/21 01:33:14;;;;;;;7.22;4.57;;;;;;;;;;6291050;28;20107;-73
2022/07/21 01:36:16;;;;;;;9.38;4.88;;;;;;;;;;6301009;28;20052;-72
2022/07/21 01:42:38;;;;;;;7.68;4.57;;;;;;;;;;6294867;28;20052;-70
2022/07/21 01:45:41;;;;;;;9.77;4.50;;;;;;;;;;6297486;28;20091;-71
2022/07/21 01:48:43;;;;;;;8.07;4.65;;;;;;;;;;6293625;28;20115;-72
2022/07/21 01:51:45;;;;;;;8.30;4.63;;;;;;;;;;6294769;28;20331;-72
2022/07/21 01:54:48;;;;;;;8.60;5.00;;;;;;;;;;6295609;28;20057;-73
2022/07/21 01:57:49;;;;;;;;;;;;;;;;;;6296126;28;20332;-72
2022/07/21 02:00:51;;;;;;;6.93;4.20;;;;;;;;;;6295480;28;19916;-71
2022/07/21 02:03:53;;;;;;;6.53;4.38;;;;;;;;;;6297868;28;20045;-72
2022/07/21 02:06:55;;;;;;;6.57;4.80;;;;;;;;;;6296306;28;20051;-72
2022/07/21 02:09:58;;;;;;;6.32;4.70;;;;;;;;;;6296029;28;20083;-72
2022/07/21 02:12:59;;;;;;;13.52;4.45;;;;;;;;;;6296381;28;20064;-72
2022/07/21 02:16:01;;;;;;;5.93;4.32;;;;;;;;;;6294355;28;20313;-72
2022/07/21 02:19:04;;;;;;;9.85;4.20;;;;;;;;;;6297713;28;20068;-72
2022/07/21 02:22:06;;;;;;;8.60;4.35;;;;;;;;;;6298300;28;20332;-72
2022/07/21 02:25:09;;;;;;;8.30;4.15;;;;;;;;;;6298380;28;20102;-72
2022/07/21 02:28:11;;;;;;;8.45;4.78;;;;;;;;;;6294963;28;20094;-72
2022/07/21 02:31:13;;;;;;;5.87;4.47;;;;;;;;;;6291539;28;20060;-71
2022/07/21 02:34:14;;;;;;;6.90;4.20;;;;;;;;;;6299419;28;20089;-72
2022/07/21 02:37:16;;;;;;;4.80;4.20;;;;;;;;;;6295146;28;20111;-71
2022/07/21 02:40:19;;;;;;;6.53;4.60;;;;;;;;;;6291752;28;20052;-71
2022/07/21 02:43:21;;;;;;;8.70;4.40;;;;;;;;;;6297812;28;20044;-73
2022/07/21 02:46:22;;;;;;;6.40;3.90;;;;;;;;;;6304463;28;20048;-72
2022/07/21 02:49:24;;;;;;;8.30;4.40;;;;;;;;;;6297813;28;20097;-71
2022/07/21 02:52:26;;;;;;;7.18;4.07;;;;;;;;;;6292257;28;20657;-73
2022/07/21 02:55:29;;;;;;;7.00;4.18;;;;;;;;;;6294581;28;20947;-71
2022/07/21 02:58:31;;;;;;;6.93;4.43;;;;;;;;;;6290193;28;20056;-71
2022/07/21 03:01:33;;;;;;;10.68;4.07;;;;;;;;;;6291292;28;20060;-71
2022/07/21 03:04:34;;;;;;;9.52;4.43;;;;;;;;;;6287621;28;20091;-72
2022/07/21 03:07:36;;;;;;;8.00;4.25;;;;;;;;;;6289317;28;20056;-71
2022/07/21 03:10:40;;;;;;;7.10;4.68;;;;;;;;;;6287627;28;20332;-72
2022/07/21 03:13:41;;;;;;;8.60;4.28;;;;;;;;;;6294812;28;20044;-73
2022/07/21 03:16:43;;;;;;;8.65;4.15;;;;;;;;;;6293987;28;20996;-73
2022/07/21 03:19:44;;;;;;;8.73;4.30;;;;;;;;;;6287819;28;20060;-73
2022/07/21 03:22:46;;;;;;;7.53;4.60;;;;;;;;;;6293521;28;20041;-72
2022/07/21 03:25:49;;;;;;;9.40;4.40;;;;;;;;;;6290739;28;20040;-71
2022/07/21 03:28:51;;;;;;;5.43;4.45;;;;;;;;;;6289988;28;20056;-71
2022/07/21 03:31:52;;;;;;;9.57;4.32;;;;;;;;;;6292640;28;20142;-72
2022/07/21 03:34:54;;;;;;;9.80;4.40;;;;;;;;;;6293768;28;20055;-72
2022/07/21 03:37:57;;;;;;;10.50;5.03;;;;;;;;;;6290577;28;20089;-71
2022/07/21 03:41:00;;;;;;;11.18;4.68;;;;;;;;;;6291138;28;20117;-71
2022/07/21 03:44:02;;;;;;;;;;;;;;;;;;6289964;28;20226;-72
2022/07/21 03:47:04;;;;;;;5.57;4.18;;;;;;;;;;6290974;28;19923;-72
2022/07/21 03:50:06;;;;;;;5.32;4.30;;;;;;;;;;6291173;28;20098;-73
2022/07/21 03:53:08;;;;;;;6.40;4.30;;;;;;;;;;6287999;28;20045;-71
2022/07/21 03:56:12;;;;;;;10.43;4.80;;;;;;;;;;6290374;28;20053;-72
2022/07/21 03:59:13;;;;;;;7.75;4.32;;;;;;;;;;6288873;28;20052;-71
2022/07/21 04:02:15;;;;;;;5.30;4.07;;;;;;;;;;6287736;28;20328;-72
2022/07/21 04:05:18;;;;;;;7.22;4.40;;;;;;;;;;6289946;28;20052;-72
2022/07/21 04:08:19;;;;;;;;;;;;;;;;;;6291055;28;20040;-71
2022/07/21 04:11:22;;;;;;;6.82;4.38;;;;;;;;;;6288960;28;19963;-72
2022/07/21 04:14:24;;;;;;;;;;;;;;;;;;6287336;28;20064;-72
2022/07/21 04:17:25;;;;;;;5.05;4.10;;;;;;;;;;6290324;28;19939;-71
2022/07/21 04:20:27;;;;;;;8.48;3.92;;;;;;;;;;6288017;28;20105;-72
2022/07/21 04:23:29;;;;;;;10.10;4.53;;;;;;;;;;6287594;28;20053;-72
2022/07/21 04:26:32;;;;;;;8.07;4.18;;;;;;;;;;6284936;28;20338;-71
2022/07/21 04:29:34;;;;;;;6.18;4.28;;;;;;;;;;6292283;28;20063;-72
2022/07/21 04:32:35;;;;;;;10.82;4.78;;;;;;;;;;6289769;28;20045;-72
2022/07/21 04:35:37;;;;;;;8.05;4.47;;;;;;;;;;6285342;28;20056;-72
2022/07/21 04:38:38;;;;;;;7.13;4.10;;;;;;;;;;6292954;28;20115;-78
2022/07/21 04:41:41;;;;;;;5.18;3.60;;;;;;;;;;6288246;28;20045;-76
2022/07/21 04:44:43;;;;;;;;;;;;;;;;;;6290315;28;20267;-78
2022/07/21 04:47:47;;;;;;;10.40;3.90;;;;;;;;;;6289425;28;19928;-77
2022/07/21 04:50:48;;;;;;;5.95;4.10;;;;;;;;;;6288743;28;20216;-77
2022/07/21 04:53:50;;;;;;;9.23;3.92;;;;;;;;;;6289671;28;20126;-80
2022/07/21 04:56:53;;;;;;;4.18;3.50;;;;;;;;;;6291938;28;20045;-76
2022/07/21 04:59:55;;;;;;;6.32;4.38;;;;;;;;;;6290140;28;20044;-78
2022/07/21 05:02:57;;;;;;;7.22;4.25;;;;;;;;;;6291194;28;20064;-78
2022/07/21 05:05:58;;;;;;;11.02;4.18;;;;;;;;;;6289410;28;20060;-77
2022/07/21 05:09:00;;;;;;;7.38;4.15;;;;;;;;;;6288859;28;20053;-77
2022/07/21 05:12:04;;;;;;;7.70;4.68;;;;;;;;;;6292386;28;20057;-78
2022/07/21 05:15:07;;;;;;;7.60;3.90;;;;;;;;;;6287269;28;20051;-78
2022/07/21 05:18:09;;;;;;;8.70;5.18;;;;;;;;;;6287450;28;20052;-78
2022/07/21 05:21:11;;;;;;;9.88;4.80;;;;;;;;;;6288093;28;20048;-75
2022/07/21 05:24:12;;;;;;;6.78;4.45;;;;;;;;;;6286608;28;20044;-79
2022/07/21 05:27:15;;;;;;;12.52;4.50;;;;;;;;;;6292611;28;20278;-79
2022/07/21 05:30:17;;;;;;;;;;;;;;;;;;6297676;28;20040;-78
2022/07/21 05:33:18;;;;;;;11.10;4.85;;;;;;;;;;6293036;28;19970;-80
2022/07/21 05:36:20;;;;;;;6.68;4.65;;;;;;;;;;6291628;28;20052;-79
2022/07/21 05:39:22;;;;;;;13.07;4.43;;;;;;;;;;6294581;28;20053;-79
2022/07/21 05:42:25;;;;;;;10.25;4.85;;;;;;;;;;6292770;28;20237;-81
2022/07/21 05:45:27;;;;;;;11.70;5.05;;;;;;;;;;6288868;28;20121;-79
2022/07/21 05:48:28;;;;;;;10.50;4.63;;;;;;;;;;6293147;28;20116;-76
2022/07/21 05:51:30;;;;;;;12.35;5.57;;;;;;;;;;6291565;28;20049;-80
2022/07/21 05:54:31;;;;;;;10.77;4.35;;;;;;;;;;6295456;28;20053;-76
2022/07/21 05:57:35;;;;;;;10.95;4.65;;;;;;;;;;6289623;28;25759;-77
2022/07/21 06:00:36;;;;;;;9.00;4.32;;;;;;;;;;6293877;28;20053;-80
2022/07/21 06:03:39;;;;;;;13.57;4.57;;;;;;;;;;6289288;28;20056;-83
2022/07/21 06:06:41;;;;;;;;;;;;;;;;;;6292207;28;20303;-76
2022/07/21 06:09:42;;;;;;;12.07;4.35;;;;;;;;;;6292232;28;19936;-74
2022/07/21 06:12:46;;;;;;;5.63;4.07;;;;;;;;;;6287434;28;20259;-76
2022/07/21 06:15:47;;;;;;;7.38;4.47;;;;;;;;;;6291060;28;20044;-73
2022/07/21 06:18:49;;;;;;;9.25;4.22;;;;;;;;;;6288351;28;20228;-76
2022/07/21 06:21:51;;;;;;;8.43;4.63;;;;;;;;;;6285243;28;20248;-76
2022/07/21 06:24:53;;;;;;;10.43;4.18;;;;;;;;;;6292914;28;20385;-76
2022/07/21 06:27:56;;;;;;;8.68;4.13;;;;;;;;;;6293441;28;20728;-76
2022/07/21 06:30:57;;;;;;;10.55;4.22;;;;;;;;;;6289461;28;21719;-75
2022/07/21 06:33:59;;;;;;;12.20;5.38;;;;;;;;;;6293441;28;20142;-76
2022/07/21 06:37:01;;;;;;;9.13;5.00;;;;;;;;;;6292238;28;20045;-75
2022/07/21 06:40:03;;;;;;;6.75;4.82;;;;;;;;;;6293200;28;20057;-76
2022/07/21 06:43:07;;;;;;;15.02;5.63;;;;;;;;;;6289260;28;20053;-75
2022/07/21 06:46:08;;;;;;;;;;;;;;;;;;6292969;28;20336;-76
2022/07/21 06:49:10;;;;;;;10.25;4.80;;;;;;;;;;6293388;28;19924;-77
2022/07/21 06:52:11;;;;;;;9.20;5.03;;;;;;;;;;6289617;28;20045;-76
2022/07/21 06:55:13;;;;;;;4.68;4.22;;;;;;;;;;6292807;28;20049;-76
2022/07/21 06:58:19;;;;;;;5.13;3.50;;;;;;;;;;6314764;28;20075;-76
2022/07/21 07:01:20;;;;;;;8.65;4.07;;;;;;;;;;6317918;28;21234;-76
2022/07/21 07:04:22;;;;;;;10.80;4.05;;;;;;;;;;6319174;28;20332;-76
2022/07/21 07:07:23;;;;;;;6.15;3.63;;;;;;;;;;6319459;28;20074;-76
2022/07/21 07:10:25;;;;;;;7.88;3.25;;;;;;;;;;6321989;28;20055;-76
2022/07/21 07:13:28;;;;;;;8.25;3.25;;;;;;;;;;6318590;28;20059;-76
2022/07/21 07:16:30;;;;;;;;;;;;;;;;;;6319510;28;20117;-74
2022/07/21 07:19:31;;;;;;;8.75;2.90;;;;;;;;;;6318080;28;19958;-75
2022/07/21 07:22:33;;;;;;;7.95;3.35;;;;;;;;;;6316095;28;20040;-76
2022/07/21 07:25:35;;;;;;;5.68;2.60;;;;;;;;;;6316651;28;20055;-75
2022/07/21 07:28:38;;;;;;;5.70;3.05;;;;;;;;;;6315479;28;20109;-73
2022/07/21 07:31:40;;;;;;;6.85;2.70;;;;;;;;;;6292324;28;20041;-75
2022/07/21 07:34:41;;;;;;;5.70;2.78;;;;;;;;;;6292129;28;20060;-75
2022/07/21 07:37:45;;;;;;;5.07;2.97;;;;;;;;;;6290744;28;20048;-75
2022/07/21 07:40:47;;;;;;;8.15;2.88;;;;;;;;;;6293346;28;20070;-74
2022/07/21 07:43:51;;;;;;;4.18;2.60;;;;;;;;;;6295172;28;20051;-72
2022/07/21 07:46:52;;;;;;;5.90;3.38;;;;;;;;;;6287585;28;20083;-75
2022/07/21 07:49:54;;;;;;;9.18;3.50;;;;;;;;;;6291966;28;20106;-75
2022/07/21 07:52:56;;;;;;;8.02;3.58;;;;;;;;;;6290638;28;20275;-75
2022/07/21 07:55:57;;;;;;;7.65;3.00;;;;;;;;;;6293595;28;20065;-74
2022/07/21 07:59:00;;;;;;;6.55;3.22;;;;;;;;;;6298929;28;20323;-73
2022/07/21 08:02:02;;;;;;;9.63;3.33;;;;;;;;;;6289778;28;20060;-74
2022/07/21 08:05:05;;;;;;;8.93;3.30;;;;;;;;;;6292257;28;20059;-70
2022/07/21 08:08:07;;;;;;;5.18;3.28;;;;;;;;;;6292722;28;20339;-74
2022/07/21 08:11:09;;;;;;;4.37;3.10;;;;;;;;;;6290294;28;20045;-74
2022/07/21 08:14:12;;;;;;;6.57;4.00;;;;;;;;;;6287423;28;20461;-74
2022/07/21 08:17:16;;;;;;;7.68;3.80;;;;;;;;;;6288615;28;20267;-75
2022/07/21 08:20:18;;;;;;;14.65;4.07;;;;;;;;;;6291217;28;20044;-76
2022/07/21 08:23:19;;;;;;;6.97;3.90;;;;;;;;;;6290084;28;20041;-73
2022/07/21 08:26:21;;;;;;;6.80;3.57;;;;;;;;;;6291945;28;20401;-75
2022/07/21 08:29:24;;;;;;;9.48;3.90;;;;;;;;;;6289508;28;20075;-73
2022/07/21 08:32:25;;;;;;;7.70;3.58;;;;;;;;;;6290596;28;20048;-73
2022/07/21 08:35:28;;;;;;;5.87;3.50;;;;;;;;;;6287305;28;20378;-71
2022/07/21 08:38:29;;;;;;;;;;;;;;;;;;6290404;28;20051;-74
2022/07/21 08:41:32;;;;;;;5.57;3.55;;;;;;;;;;6292270;28;19917;-74
2022/07/21 08:44:35;;;;;;;4.30;3.28;;;;;;;;;;6287673;28;20067;-73
2022/07/21 08:47:37;;;;;;;7.03;3.50;;;;;;;;;;6292139;28;20068;-74
2022/07/21 08:50:40;;;;;;;6.28;3.00;;;;;;;;;;6293074;28;20268;-73
2022/07/21 08:53:44;;;;;;;6.78;3.10;;;;;;;;;;6291117;28;20060;-74
2022/07/21 08:56:46;;;;;;;6.10;3.10;;;;;;;;;;6290094;28;20099;-73
2022/07/21 08:59:49;;;;;;;4.78;3.10;;;;;;;;;;6288967;28;20060;-70
2022/07/21 09:03:09;;;;;;;5.78;2.92;;;;;;;;;;6293120;28;20041;-74
2022/07/21 09:06:13;;;;;;;4.70;2.78;;;;;;;;;;6294587;28;20036;-73
2022/07/21 09:09:20;;;;;;;5.03;2.95;;;;;;;;;;6289341;28;20045;-72
2022/07/21 09:12:21;;;;;;;4.45;2.72;;;;;;;;;;6293450;28;20442;-72
2022/07/21 09:15:27;;;;;;;4.78;3.22;;;;;;;;;;6293753;28;20240;-72
2022/07/21 09:18:29;;;;;;;5.43;2.80;;;;;;;;;;6292711;28;20057;-73
2022/07/21 09:21:32;;;;;;;6.32;2.58;;;;;;;;;;6294475;28;20072;-74
2022/07/21 09:24:38;;;;;;;7.32;2.72;;;;;;;;;;6293931;28;20358;-75
2022/07/21 09:27:42;;;;;;;6.22;3.10;;;;;;;;;;6292558;28;20064;-74
2022/07/21 09:30:57;;;;;;;5.40;2.97;;;;;;;;;;6292572;28;20275;-71
2022/07/21 09:33:59;;;;;;;8.23;3.55;;;;;;;;;;6296442;28;20049;-74
2022/07/21 09:37:01;;;;;;;5.35;3.35;;;;;;;;;;6292543;28;20060;-74
2022/07/21 09:40:07;;;;;;;6.25;3.40;;;;;;;;;;6295482;28;20056;-74
2022/07/21 09:43:09;;;;;;;30.20;18.13;;;;;;;;;;6294747;28;20225;-69
2022/07/21 09:46:17;;;;;;;47.83;33.33;;;;;;;;;;6292200;28;20239;-74
2022/07/21 09:49:31;;;;;;;9.20;5.18;;;;;;;;;;6292784;28;20286;-71
2022/07/21 09:52:35;;;;;;;6.72;3.95;;;;;;;;;;6295265;28;20052;-68
2022/07/21 09:55:37;;;;;;;5.13;4.43;;;;;;;;;;6294300;28;20051;-70
2022/07/21 09:58:38;;;;;;;6.57;4.40;;;;;;;;;;6292709;28;20049;-69
2022/07/21 10:01:42;;;;;;;29.10;22.10;;;;;;;;;;6294168;28;20079;-74
2022/07/21 10:04:45;;;;;;;7.00;4.20;;;;;;;;;;6294786;28;20041;-72
2022/07/21 10:07:49;;;;;;;6.68;4.30;;;;;;;;;;6290664;28;20053;-72
2022/07/21 10:10:50;;;;;;;21.52;15.57;;;;;;;;;;6296947;28;20086;-73
2022/07/21 10:13:52;;;;;;;6.38;5.55;;;;;;;;;;6289620;28;20045;-72
2022/07/21 10:16:55;;;;;;;;;;;;;;;;;;6292595;28;20056;-74
2022/07/21 10:20:04;;;;;;;7.93;5.18;;;;;;;;;;6292628;28;19932;-72
2022/07/21 10:23:13;;;;;;;11.88;9.05;;;;;;;;;;6293937;28;20048;-72
2022/07/21 10:26:15;;;;;;;7.63;5.10;;;;;;;;;;6317334;28;20051;-74
2022/07/21 10:29:27;;;;;;;;;;;;;;;;;;6319996;28;20085;-71
2022/07/21 10:32:32;;;;;;;5.97;3.80;;;;;;;;;;6321856;28;19924;-72
2022/07/21 10:35:34;;;;;;;6.53;4.00;;;;;;;;;;6317695;28;20059;-72
2022/07/21 10:38:37;;;;;;;5.93;3.47;;;;;;;;;;6306546;28;20061;-69
2022/07/21 10:41:40;;;;;;;5.32;3.70;;;;;;;;;;6291206;28;20059;-74
2022/07/21 10:44:46;;;;;;;5.47;3.47;;;;;;;;;;6289900;28;20091;-71
2022/07/21 10:47:49;;;;;;;4.82;3.80;;;;;;;;;;6293338;28;20063;-74
2022/07/21 10:50:51;;;;;;;5.82;3.97;;;;;;;;;;6291614;28;20048;-74
2022/07/21 10:54:18;;;;;;;7.10;4.45;;;;;;;;;;6289924;28;20131;-72
2022/07/21 10:57:27;;;;;;;5.32;3.85;;;;;;;;;;6289759;28;20068;-73
2022/07/21 11:00:30;;;;;;;6.90;3.10;;;;;;;;;;6292305;28;20280;-74
2022/07/21 11:03:35;;;;;;;8.00;4.20;;;;;;;;;;6290428;28;20302;-74
2022/07/21 11:06:38;;;;;;;4.75;4.15;;;;;;;;;;6289903;28;20271;-74
2022/07/21 11:10:14;;;;;;;5.70;3.85;;;;;;;;;;6291904;28;20255;-75
2022/07/21 11:13:16;;;;;;;5.10;4.07;;;;;;;;;;6294155;28;20527;-75
2022/07/21 11:16:18;;;;;;;6.10;4.13;;;;;;;;;;6292477;28;20061;-74
2022/07/21 11:19:32;;;;;;;6.40;4.53;;;;;;;;;;6289926;28;20053;-75
2022/07/21 11:22:34;;;;;;;8.63;4.47;;;;;;;;;;6292032;28;20052;-74
2022/07/21 11:25:35;;;;;;;5.72;4.65;;;;;;;;;;6291711;28;20102;-74
2022/07/21 11:28:38;;;;;;;8.90;4.88;;;;;;;;;;6291426;28;21047;-72
2022/07/21 11:31:46;;;;;;;5.00;4.50;;;;;;;;;;6298213;28;20108;-72
2022/07/21 11:34:50;;;;;;;7.55;4.70;;;;;;;;;;6296253;28;20044;-72
2022/07/21 11:37:52;;;;;;;5.00;4.20;;;;;;;;;;6296112;28;20045;-71
2022/07/21 11:40:53;;;;;;;8.30;4.40;;;;;;;;;;6297761;28;20048;-72
2022/07/21 11:43:55;;;;;;;5.20;4.32;;;;;;;;;;6300278;28;20048;-72
2022/07/21 11:46:58;;;;;;;6.10;4.35;;;;;;;;;;6294702;28;20061;-73
2022/07/21 11:50:03;;;;;;;7.70;4.20;;;;;;;;;;6293235;28;20051;-72
2022/07/21 11:53:06;;;;;;;5.22;4.72;;;;;;;;;;6300320;28;20060;-73
2022/07/21 11:56:14;;;;;;;5.00;4.50;;;;;;;;;;6296633;28;20063;-72
2022/07/21 11:59:15;;;;;;;4.75;4.07;;;;;;;;;;6293801;28;20049;-72
2022/07/21 12:02:19;;;;;;;6.95;4.47;;;;;;;;;;6298122;28;20057;-72
2022/07/21 12:05:24;;;;;;;6.20;4.55;;;;;;;;;;6295155;28;20060;-72
2022/07/21 12:08:26;;;;;;;4.85;4.20;;;;;;;;;;6294283;28;20248;-71
2022/07/21 12:11:34;;;;;;;4.50;4.10;;;;;;;;;;6303428;28;20051;-71
2022/07/21 12:14:40;;;;;;;5.10;4.35;;;;;;;;;;6293705;28;20060;-71
2022/07/21 12:17:44;;;;;;;7.28;4.47;;;;;;;;;;6298208;28;20053;-71
2022/07/21 12:20:47;;;;;;;8.57;4.72;;;;;;;;;;6299459;28;20048;-71
2022/07/21 12:23:49;;;;;;;9.25;5.15;;;;;;;;;;6294965;28;20052;-71
2022/07/21 12:26:51;;;;;;;9.23;4.55;;;;;;;;;;6296171;28;20049;-72
2022/07/21 12:29:52;;;;;;;7.43;4.63;;;;;;;;;;6300171;28;20127;-72
2022/07/21 12:32:54;;;;;;;4.97;4.50;;;;;;;;;;6297334;28;20052;-73
2022/07/21 12:36:02;;;;;;;5.78;4.88;;;;;;;;;;6300119;28;20355;-71
2022/07/21 12:39:55;;;;;;;6.90;4.80;;;;;;;;;;6299696;28;20057;-71
2022/07/21 12:42:38;;;;;;;6.80;4.57;;;;;;;;;;6299353;28;20041;-71
2022/07/21 12:45:50;;;;;;;6.13;4.55;;;;;;;;;;6300604;28;20267;-72
2022/07/21 12:48:52;;;;;;;5.57;4.53;;;;;;;;;;6295719;28;20053;-71
2022/07/21 12:51:58;;;;;;;5.85;4.60;;;;;;;;;;6295009;28;20227;-71
2022/07/21 12:55:00;;;;;;;5.78;4.60;;;;;;;;;;6293351;28;20085;-72
2022/07/21 12:58:02;;;;;;;5.22;4.70;;;;;;;;;;6294089;28;20072;-72
2022/07/21 13:01:04;;;;;;;4.60;4.20;;;;;;;;;;6297491;28;20052;-72
2022/07/21 13:04:06;;;;;;;7.25;4.40;;;;;;;;;;6296588;28;20041;-71
2022/07/21 13:07:09;;;;;;;7.32;4.78;;;;;;;;;;6291536;28;20275;-71
2022/07/21 13:10:11;;;;;;;6.10;4.53;;;;;;;;;;6291467;28;20048;-72
2022/07/21 13:13:12;;;;;;;5.90;4.65;;;;;;;;;;6295731;28;20044;-72
2022/07/21 13:16:14;;;;;;;5.05;4.53;;;;;;;;;;6293746;28;20047;-71
2022/07/21 13:19:16;;;;;;;6.90;4.50;;;;;;;;;;6291767;28;20466;-70
2022/07/21 13:22:19;;;;;;;5.22;4.70;;;;;;;;;;6295169;28;20049;-70
2022/07/21 13:25:20;;;;;;;8.55;4.80;;;;;;;;;;6291971;28;20237;-71
2022/07/21 13:28:22;;;;;;;8.15;4.50;;;;;;;;;;6292186;28;20262;-71
2022/07/21 13:31:24;;;;;;;6.40;4.70;;;;;;;;;;6293668;28;20059;-71
2022/07/21 13:34:26;;;;;;;6.18;4.53;;;;;;;;;;6293305;28;20099;-71
2022/07/21 13:37:29;;;;;;;4.80;4.30;;;;;;;;;;6291383;28;20108;-70
2022/07/21 13:40:30;;;;;;;6.72;4.28;;;;;;;;;;6294170;28;20044;-71
2022/07/21 13:43:32;;;;;;;6.93;3.85;;;;;;;;;;6291002;28;20056;-71
2022/07/21 13:46:34;;;;;;;7.72;4.32;;;;;;;;;;6292525;28;20040;-72
2022/07/21 13:49:35;;;;;;;10.32;4.35;;;;;;;;;;6292280;28;20071;-71
2022/07/21 13:52:40;;;;;;;4.65;4.03;;;;;;;;;;6295499;28;20044;-70
2022/07/21 13:55:42;;;;;;;6.45;5.00;;;;;;;;;;6290760;28;20252;-72
2022/07/21 13:58:44;;;;;;;5.20;4.20;;;;;;;;;;6294918;28;20094;-72
2022/07/21 14:01:46;;;;;;;6.88;4.78;;;;;;;;;;6296356;28;20045;-72
2022/07/21 14:04:47;;;;;;;7.50;4.45;;;;;;;;;;6291574;28;20336;-73
2022/07/21 14:07:50;;;;;;;7.35;4.50;;;;;;;;;;6290220;28;20090;-72
2022/07/21 14:10:52;;;;;;;4.88;4.47;;;;;;;;;;6292854;28;20052;-73
2022/07/21 14:13:54;;;;;;;5.72;4.60;;;;;;;;;;6292050;28;20049;-71
2022/07/21 14:16:56;;;;;;;6.32;4.95;;;;;;;;;;6290574;28;20053;-71
2022/07/21 14:19:58;;;;;;;6.38;4.60;;;;;;;;;;6294993;28;20051;-73
2022/07/21 14:23:01;;;;;;;6.32;4.43;;;;;;;;;;6293272;28;20057;-73
2022/07/21 14:26:03;;;;;;;7.43;4.82;;;;;;;;;;6293762;28;20370;-71
2022/07/21 14:29:05;;;;;;;7.50;4.45;;;;;;;;;;6293222;28;20351;-72
2022/07/21 14:32:06;;;;;;;4.90;4.38;;;;;;;;;;6295804;28;20347;-71
2022/07/21 14:35:09;;;;;;;5.35;4.82;;;;;;;;;;6292757;28;20359;-71
2022/07/21 14:38:12;;;;;;;4.90;4.40;;;;;;;;;;6290686;28;20056;-71
2022/07/21 14:41:14;;;;;;;6.47;4.70;;;;;;;;;;6291674;28;20060;-73
2022/07/21 14:44:15;;;;;;;6.93;5.38;;;;;;;;;;6291757;28;20087;-71
2022/07/21 14:47:17;;;;;;;10.00;8.02;;;;;;;;;;6292374;28;20048;-75
2022/07/21 14:50:19;;;;;;;7.95;5.10;;;;;;;;;;6288729;28;20060;-76
2022/07/21 14:53:22;;;;;;;6.95;6.45;;;;;;;;;;6290229;28;20290;-76
2022/07/21 14:56:23;;;;;;;9.18;5.28;;;;;;;;;;6290724;28;20040;-79
2022/07/21 14:59:25;;;;;;;;;;;;;;;;;;6291512;28;20044;-76
2022/07/21 15:02:27;;;;;;;5.65;5.10;;;;;;;;;;6289562;28;20203;-73
2022/07/21 15:05:28;;;;;;;;;;;;;;;;;;6289062;28;20086;-70
2022/07/21 15:08:31;;;;;;;6.82;5.57;;;;;;;;;;6293833;28;20103;-74
2022/07/21 15:11:33;;;;;;;6.80;5.28;;;;;;;;;;6292438;28;20259;-75
2022/07/21 15:14:35;;;;;;;7.82;5.65;;;;;;;;;;6295883;28;20048;-71
2022/07/21 15:17:37;;;;;;;6.50;5.80;;;;;;;;;;6293219;28;20324;-74
2022/07/21 15:20:38;;;;;;;;;;;;;;;;;;6290318;28;20048;-74
2022/07/21 15:23:42;;;;;;;13.13;5.93;;;;;;;;;;6294318;28;19932;-74
2022/07/21 15:26:44;;;;;;;10.18;5.75;;;;;;;;;;6291493;28;20119;-72
2022/07/21 15:29:45;;;;;;;10.27;6.07;;;;;;;;;;6286966;28;20049;-71
2022/07/21 15:32:47;;;;;;;7.18;5.50;;;;;;;;;;6291431;28;20044;-75
2022/07/21 15:35:53;;;;;;;8.63;5.75;;;;;;;;;;6288134;28;21372;-75
2022/07/21 15:38:57;;;;;;;6.07;5.47;;;;;;;;;;6286864;28;20104;-73
2022/07/21 15:41:58;;;;;;;7.57;5.57;;;;;;;;;;6286199;28;20052;-73
2022/07/21 15:45:00;;;;;;;7.30;6.13;;;;;;;;;;6288463;28;20240;-73
2022/07/21 15:48:02;;;;;;;7.53;5.85;;;;;;;;;;6288099;28;20064;-72
2022/07/21 15:51:04;;;;;;;7.07;5.57;;;;;;;;;;6295243;28;20052;-73
2022/07/21 15:54:08;;;;;;;9.38;6.28;;;;;;;;;;6292822;28;20045;-73
2022/07/21 15:57:10;;;;;;;8.57;6.00;;;;;;;;;;6293200;28;20124;-73
2022/07/21 16:00:12;;;;;;;;;;;;;;;;;;6291417;28;20052;-73
2022/07/21 16:03:13;;;;;;;7.45;5.68;;;;;;;;;;6294093;28;20200;-73
2022/07/21 16:06:16;;;;;;;8.65;5.43;;;;;;;;;;6300336;28;20137;-72
2022/07/21 16:09:19;;;;;;;6.10;5.50;;;;;;;;;;6320875;28;20056;-73
2022/07/21 16:12:21;;;;;;;7.07;5.35;;;;;;;;;;6320202;28;20051;-74
2022/07/21 16:15:23;;;;;;;8.52;5.95;;;;;;;;;;6319174;28;20052;-72
2022/07/21 16:18:25;;;;;;;6.03;5.40;;;;;;;;;;6311365;28;20053;-73
2022/07/21 16:21:28;;;;;;;6.03;5.53;;;;;;;;;;6318460;28;20235;-73
2022/07/21 16:24:31;;;;;;;10.18;6.03;;;;;;;;;;6318015;28;20047;-72
2022/07/21 16:27:32;;;;;;;7.50;6.32;;;;;;;;;;6319673;28;20101;-72
2022/07/21 16:30:34;;;;;;;10.15;6.22;;;;;;;;;;6318687;28;20048;-73
2022/07/21 16:33:36;;;;;;;10.85;5.97;;;;;;;;;;6318702;28;20326;-73
2022/07/21 16:36:37;;;;;;;11.85;6.13;;;;;;;;;;6321529;28;20052;-71
2022/07/21 16:39:41;;;;;;;9.05;5.65;;;;;;;;;;6318152;28;20055;-71
2022/07/21 16:42:42;;;;;;;9.60;6.20;;;;;;;;;;6320972;28;20051;-74
2022/07/21 16:45:44;;;;;;;8.65;5.90;;;;;;;;;;6298248;28;20102;-75
2022/07/21 16:48:48;;;;;;;8.80;6.22;;;;;;;;;;6294632;28;20332;-74
2022/07/21 16:51:50;;;;;;;8.63;6.00;;;;;;;;;;6288153;28;20040;-75
2022/07/21 16:54:53;;;;;;;6.53;5.47;;;;;;;;;;6293325;28;20075;-72
2022/07/21 16:57:55;;;;;;;6.93;5.70;;;;;;;;;;6292600;28;20076;-71
2022/07/21 17:00:57;;;;;;;9.57;5.90;;;;;;;;;;6297023;28;20052;-73
2022/07/21 17:03:58;;;;;;;7.63;6.28;;;;;;;;;;6287694;28;20048;-75
2022/07/21 17:07:00;;;;;;;8.77;6.35;;;;;;;;;;6290491;28;20052;-75
2022/07/21 17:10:04;;;;;;;7.57;6.28;;;;;;;;;;6292466;28;20055;-75
2022/07/21 17:13:06;;;;;;;6.85;6.18;;;;;;;;;;6295233;28;20063;-74
2022/07/21 17:16:09;;;;;;;8.13;5.70;;;;;;;;;;6295220;28;20259;-74
2022/07/21 17:19:11;;;;;;;8.63;6.35;;;;;;;;;;6298832;28;20119;-74
2022/07/21 17:22:12;;;;;;;8.93;6.38;;;;;;;;;;6294457;28;20047;-76
2022/07/21 17:25:15;;;;;;;7.55;6.30;;;;;;;;;;6300117;28;20045;-75
2022/07/21 17:28:17;;;;;;;8.57;6.22;;;;;;;;;;6324478;28;20050;-75
2022/07/21 17:31:19;;;;;;;6.40;5.80;;;;;;;;;;6323109;28;20098;-74
2022/07/21 17:34:21;;;;;;;8.05;6.13;;;;;;;;;;6321987;28;20040;-74
2022/07/21 17:37:22;;;;;;;8.93;6.60;;;;;;;;;;6313124;28;20119;-75
2022/07/21 17:40:26;;;;;;;9.98;5.88;;;;;;;;;;6314176;28;20094;-74
2022/07/21 17:43:27;;;;;;;6.60;6.00;;;;;;;;;;6310205;28;20090;-74
2022/07/21 17:46:29;;;;;;;7.65;6.03;;;;;;;;;;6315610;28;20308;-70
2022/07/21 17:49:31;;;;;;;9.80;6.70;;;;;;;;;;6314849;28;20075;-75
2022/07/21 17:52:32;;;;;;;8.05;6.43;;;;;;;;;;6318094;28;20048;-73
2022/07/21 17:55:36;;;;;;;12.13;6.40;;;;;;;;;;6302824;28;20048;-72
2022/07/21 17:58:46;;;;;;;8.93;6.68;;;;;;;;;;6291052;28;20106;-75
2022/07/21 18:01:48;;;;;;;6.35;5.72;;;;;;;;;;6292281;28;20282;-73
2022/07/21 18:04:50;;;;;;;12.77;6.03;;;;;;;;;;6289734;28;20123;-75
2022/07/21 18:07:52;;;;;;;13.95;6.75;;;;;;;;;;6289495;28;20052;-76
2022/07/21 18:10:55;;;;;;;8.77;6.40;;;;;;;;;;6291994;28;20052;-74
2022/07/21 18:13:57;;;;;;;8.15;6.10;;;;;;;;;;6289401;28;20446;-73
2022/07/21 18:16:58;;;;;;;8.93;6.13;;;;;;;;;;6290046;28;20060;-75
2022/07/21 18:20:00;;;;;;;9.90;6.75;;;;;;;;;;6293549;28;20048;-74
2022/07/21 18:23:02;;;;;;;9.93;6.85;;;;;;;;;;6291614;28;20234;-72